Alva, Mississippi
Current Conditions -  °F | °C
As of 1:15 AM on Thursday 18 Dec 2014 (Local Time) from KGNF Reporting Station
Overcast Overcast  
Wind Chill:   Ceiling: 8500
Heat Index:   Visibility: 10mi
Dew Point:   Wind: 0mph
Humidity: 81%   Direction: NA
Pressure: 30.25"   Gusts: NA
Location:  33.6702°N, 89.6861°W
Report Text: KGNF 180715Z AUTO 00000KT 10SM OVC085 05/02 A3025 RMK AO2
Loading
Personal Weather Stations






























Interactive Weather Map New forecast layout! Learn more

10-Day Weather Forecast

Advertisements
Track Severe Weather on mobile